createdAt,value
2024-03-11T00:00:27.815Z,17.35
2024-03-11T00:02:55.325Z,17.73
2024-03-11T00:05:22.732Z,18.27
2024-03-11T00:07:50.813Z,18.83
2024-03-11T00:10:20.075Z,18.25
2024-03-11T00:12:52.573Z,16.98
2024-03-11T00:15:24.883Z,17.83
2024-03-11T00:17:52.952Z,15.95
2024-03-11T00:20:24.723Z,17.42
2024-03-11T00:22:51.937Z,18.10
2024-03-11T00:25:20.483Z,17.58
2024-03-11T00:27:47.692Z,16.50
2024-03-11T00:30:14.988Z,17.65
2024-03-11T00:32:47.793Z,17.23
2024-03-11T00:35:16.456Z,17.08
2024-03-11T00:37:44.312Z,17.90
2024-03-11T00:40:12.087Z,17.40
2024-03-11T00:42:42.047Z,18.13
2024-03-11T00:45:13.188Z,17.60
2024-03-11T00:47:41.936Z,18.23
2024-03-11T00:50:11.779Z,18.85
2024-03-11T00:52:39.527Z,17.70
2024-03-11T00:55:09.878Z,16.73
2024-03-11T00:57:38.054Z,17.85
2024-03-11T01:00:06.202Z,17.98
2024-03-11T01:02:36.521Z,17.42
2024-03-11T01:05:04.277Z,17.38
2024-03-11T01:07:44.245Z,17.05
2024-03-11T01:10:15.622Z,17.25
2024-03-11T01:12:43.525Z,17.90
2024-03-11T01:15:12.279Z,17.95
2024-03-11T01:17:40.024Z,17.30
2024-03-11T01:20:12.788Z,18.20
2024-03-11T01:25:11.028Z,17.50
2024-03-11T01:27:39.166Z,18.45
2024-03-11T01:30:08.803Z,17.67
2024-03-11T01:32:39.541Z,18.67
2024-03-11T01:35:07.927Z,17.65
2024-03-11T01:37:37.940Z,17.23
2024-03-11T01:40:05.955Z,18.75
2024-03-11T01:42:33.289Z,18.23
2024-03-11T01:45:00.662Z,18.95
2024-03-11T01:47:28.078Z,17.77
2024-03-11T01:50:00.819Z,17.52
2024-03-11T01:52:34.911Z,17.42
2024-03-11T01:55:04.838Z,17.45
2024-03-11T01:57:36.383Z,17.85
2024-03-11T02:00:09.727Z,17.35
2024-03-11T02:02:41.493Z,17.92
2024-03-11T02:05:16.071Z,17.30
2024-03-11T02:07:45.770Z,17.55
2024-03-11T02:10:16.442Z,17.52
2024-03-11T02:12:46.967Z,17.48
2024-03-11T02:15:19.202Z,17.60
2024-03-11T02:17:47.186Z,18.65
2024-03-11T02:20:19.954Z,18.13
2024-03-11T02:22:54.765Z,18.50
2024-03-11T02:25:29.862Z,17.65
2024-03-11T02:28:02.296Z,18.17
2024-03-11T02:30:29.624Z,17.70
2024-03-11T02:32:57.515Z,16.95
2024-03-11T02:35:25.360Z,17.45
2024-03-11T02:37:52.560Z,16.83
2024-03-11T02:40:20.287Z,19.23
2024-03-11T02:42:47.691Z,16.35
2024-03-11T02:45:16.675Z,17.25
2024-03-11T02:47:44.908Z,18.70
2024-03-11T02:50:13.258Z,18.48
2024-03-11T02:52:40.569Z,17.00
2024-03-11T02:55:13.053Z,16.92
2024-03-11T02:57:40.206Z,17.23
2024-03-11T03:00:12.570Z,16.23
2024-03-11T03:02:41.227Z,17.23
2024-03-11T03:05:09.362Z,17.42
2024-03-11T03:07:39.268Z,16.75
2024-03-11T03:10:06.915Z,17.48
2024-03-11T03:12:34.128Z,16.48
2024-03-11T03:15:02.070Z,17.08
2024-03-11T03:17:29.395Z,16.17
2024-03-11T03:19:56.825Z,17.27
2024-03-11T03:22:24.004Z,16.88
2024-03-11T03:24:51.392Z,16.25
2024-03-11T03:27:18.586Z,17.10
2024-03-11T03:29:46.462Z,16.95
2024-03-11T03:32:14.045Z,16.80
2024-03-11T03:34:41.319Z,16.75
2024-03-11T03:37:08.535Z,16.40
2024-03-11T03:39:35.721Z,16.60
2024-03-11T03:42:03.038Z,16.83
2024-03-11T03:44:30.234Z,16.52
2024-03-11T03:46:57.547Z,16.85
2024-03-11T03:49:24.726Z,16.10
2024-03-11T03:51:51.887Z,16.65
2024-03-11T03:54:19.390Z,17.15
2024-03-11T03:56:46.913Z,17.77
2024-03-11T03:59:14.278Z,16.17
2024-03-11T04:01:41.455Z,16.48
2024-03-11T04:04:08.618Z,16.95
2024-03-11T04:06:35.879Z,16.30
2024-03-11T04:09:03.117Z,16.25
2024-03-11T04:11:30.308Z,16.75
2024-03-11T04:13:58.767Z,16.17
2024-03-11T04:16:26.818Z,16.60
2024-03-11T04:18:53.948Z,15.48
2024-03-11T04:21:22.932Z,16.90
2024-03-11T04:23:51.952Z,16.27
2024-03-11T04:26:19.414Z,16.42
2024-03-11T04:28:46.577Z,17.42
2024-03-11T04:31:13.757Z,15.48
2024-03-11T04:33:41.597Z,16.95
2024-03-11T04:36:09.558Z,16.83
2024-03-11T04:38:38.089Z,16.80
2024-03-11T04:41:05.395Z,16.42
2024-03-11T04:43:32.677Z,16.83
2024-03-11T04:45:59.882Z,15.45
2024-03-11T04:48:27.122Z,15.40
2024-03-11T04:53:21.464Z,16.05
2024-03-11T04:55:48.692Z,16.02
2024-03-11T04:58:15.925Z,16.23
2024-03-11T05:00:43.127Z,15.82
2024-03-11T05:03:10.317Z,16.38
2024-03-11T05:05:38.357Z,14.60
2024-03-11T05:08:07.235Z,15.95
2024-03-11T05:10:35.039Z,15.77
2024-03-11T05:13:05.135Z,15.73
2024-03-11T05:15:34.039Z,15.88
2024-03-11T05:18:02.589Z,15.68
2024-03-11T05:20:30.181Z,16.02
2024-03-11T05:22:57.904Z,15.35
2024-03-11T05:25:25.613Z,15.45
2024-03-11T05:27:53.374Z,15.07
2024-03-11T05:30:20.830Z,15.55
2024-03-11T05:32:48.657Z,14.95
2024-03-11T05:35:19.945Z,16.83
2024-03-11T05:37:51.911Z,14.23
2024-03-11T05:40:19.981Z,15.10
2024-03-11T05:42:50.600Z,15.02
2024-03-11T05:45:17.994Z,14.80
2024-03-11T05:47:47.000Z,16.02
2024-03-11T05:50:16.347Z,14.73
2024-03-11T05:52:46.725Z,16.15
2024-03-11T05:55:14.402Z,14.95
2024-03-11T05:57:44.295Z,15.07
2024-03-11T06:00:18.143Z,16.02
2024-03-11T06:02:46.922Z,15.40
2024-03-11T06:05:14.866Z,15.40
2024-03-11T06:07:44.020Z,15.45
2024-03-11T06:10:11.632Z,15.00
2024-03-11T06:12:38.879Z,15.55
2024-03-11T06:15:06.646Z,16.58
2024-03-11T06:17:34.353Z,15.68
2024-03-11T06:20:05.179Z,14.82
2024-03-11T06:22:33.349Z,15.90
2024-03-11T06:25:00.642Z,15.35
2024-03-11T06:29:58.172Z,15.98
2024-03-11T06:32:31.982Z,15.25
2024-03-11T06:34:59.486Z,14.25
2024-03-11T06:37:26.929Z,15.27
2024-03-11T06:39:54.522Z,14.75
2024-03-11T06:42:21.757Z,14.07
2024-03-11T06:44:50.646Z,14.90
2024-03-11T06:47:17.937Z,14.57
2024-03-11T06:49:45.161Z,14.10
2024-03-11T06:52:12.861Z,14.68
2024-03-11T06:54:40.128Z,14.45
2024-03-11T06:57:07.917Z,14.27
2024-03-11T06:59:35.828Z,14.25
2024-03-11T07:02:04.038Z,15.48
2024-03-11T07:04:33.423Z,15.00
2024-03-11T07:07:02.305Z,15.38
2024-03-11T07:09:30.139Z,15.23
2024-03-11T07:11:57.845Z,14.77
2024-03-11T07:14:25.716Z,13.98
2024-03-11T07:16:57.180Z,14.55
2024-03-11T07:19:28.543Z,14.88
2024-03-11T07:21:55.837Z,15.50
2024-03-11T07:24:23.599Z,14.07
2024-03-11T07:26:51.124Z,14.60
2024-03-11T07:29:18.374Z,14.60
2024-03-11T07:31:45.726Z,14.88
2024-03-11T07:34:12.926Z,15.50
2024-03-11T07:36:40.887Z,15.45
2024-03-11T07:39:12.044Z,15.40
2024-03-11T07:41:39.586Z,15.52
2024-03-11T07:44:07.706Z,14.68
2024-03-11T07:46:36.989Z,15.45
2024-03-11T07:49:04.462Z,15.63
2024-03-11T07:51:31.723Z,15.63
2024-03-11T07:53:59.014Z,15.65
2024-03-11T07:56:26.641Z,15.15
2024-03-11T07:58:56.590Z,16.77
2024-03-11T08:01:26.628Z,16.17
2024-03-11T08:03:54.413Z,15.05
2024-03-11T08:06:21.850Z,15.90
2024-03-11T08:08:54.060Z,15.05
2024-03-11T08:11:21.806Z,15.35
2024-03-11T08:13:49.087Z,15.95
2024-03-11T08:16:16.425Z,14.85
2024-03-11T08:18:46.359Z,15.48
2024-03-11T08:21:13.533Z,14.98
2024-03-11T08:23:42.344Z,14.77
2024-03-11T08:26:09.838Z,15.40
2024-03-11T08:28:41.215Z,15.90
2024-03-11T08:31:08.962Z,14.90
2024-03-11T08:33:39.206Z,14.65
2024-03-11T08:36:07.492Z,15.63
2024-03-11T08:38:37.563Z,15.40
2024-03-11T08:41:08.344Z,15.23
2024-03-11T08:43:35.700Z,15.10
2024-03-11T08:46:03.434Z,15.68
2024-03-11T08:48:31.804Z,16.40
2024-03-11T08:51:01.862Z,14.70
2024-03-11T08:53:29.331Z,14.90
2024-03-11T08:55:57.602Z,15.20
2024-03-11T08:58:26.147Z,15.82
2024-03-11T09:00:54.162Z,15.55
2024-03-11T09:03:24.801Z,15.70
2024-03-11T09:05:52.276Z,15.32
2024-03-11T09:08:19.493Z,14.93
2024-03-11T09:10:46.849Z,14.95
2024-03-11T09:13:14.215Z,15.18
2024-03-11T09:15:41.769Z,15.45
2024-03-11T09:18:11.286Z,15.02
2024-03-11T09:20:38.774Z,15.70
2024-03-11T09:23:08.581Z,15.48
2024-03-11T09:25:37.626Z,16.13
2024-03-11T09:28:06.230Z,15.23
2024-03-11T09:30:39.844Z,15.50
2024-03-11T09:33:08.087Z,15.60
2024-03-11T09:35:36.482Z,14.95
2024-03-11T09:38:04.191Z,16.27
2024-03-11T09:40:39.423Z,15.73
2024-03-11T09:43:07.732Z,15.95
2024-03-11T09:45:36.918Z,15.25
2024-03-11T09:48:06.106Z,16.88
2024-03-11T09:50:35.399Z,16.45
2024-03-11T09:53:15.130Z,16.00
2024-03-11T09:55:46.130Z,15.80
2024-03-11T09:58:17.766Z,16.40
2024-03-11T10:00:52.119Z,16.23
2024-03-11T10:03:22.610Z,16.48
2024-03-11T10:06:05.002Z,15.85
2024-03-11T10:08:33.495Z,15.55
2024-03-11T10:11:26.401Z,16.30
2024-03-11T10:13:54.852Z,15.88
2024-03-11T10:16:26.235Z,16.42
2024-03-11T10:19:02.921Z,16.13
2024-03-11T10:21:33.301Z,16.55
2024-03-11T10:24:01.914Z,16.90
2024-03-11T10:26:34.880Z,16.20
2024-03-11T10:29:02.838Z,15.95
2024-03-11T10:31:35.465Z,17.08
2024-03-11T10:34:14.796Z,18.30
2024-03-11T10:36:50.226Z,21.50
2024-03-11T10:39:22.233Z,23.70
2024-03-11T10:41:52.053Z,21.38
2024-03-11T10:44:31.057Z,18.13
2024-03-11T10:47:16.472Z,18.15
2024-03-11T10:49:50.336Z,16.42
2024-03-11T10:52:23.805Z,17.17
2024-03-11T10:57:47.285Z,17.15
2024-03-11T11:00:22.473Z,17.50
2024-03-11T11:03:05.639Z,17.90
2024-03-11T11:05:36.979Z,16.83
2024-03-11T11:08:05.362Z,17.13
2024-03-11T11:10:37.998Z,17.92
2024-03-11T11:13:06.951Z,17.73
2024-03-11T11:15:38.266Z,16.83
2024-03-11T11:18:09.025Z,17.55
2024-03-11T11:20:39.596Z,16.85
2024-03-11T11:23:12.213Z,16.45
2024-03-11T11:28:15.058Z,16.25
2024-03-11T11:30:46.489Z,16.20
2024-03-11T11:33:56.165Z,16.55
2024-03-11T11:36:39.241Z,15.85
2024-03-11T11:39:15.901Z,16.25
2024-03-11T11:41:49.242Z,15.63
2024-03-11T11:44:30.162Z,16.58
2024-03-11T11:47:14.607Z,16.27
2024-03-11T11:49:44.600Z,16.98
2024-03-11T11:52:15.737Z,16.90
2024-03-11T11:54:44.446Z,17.35
2024-03-11T11:57:17.941Z,17.23
2024-03-11T11:59:57.840Z,17.23
2024-03-11T12:02:30.855Z,16.50
2024-03-11T12:05:01.897Z,16.00
2024-03-11T12:07:30.219Z,16.33
2024-03-11T12:09:59.713Z,16.35
2024-03-11T12:12:34.034Z,16.52
2024-03-11T12:15:04.572Z,16.65
2024-03-11T12:17:33.438Z,16.52
2024-03-11T12:20:26.330Z,16.98
2024-03-11T12:22:56.759Z,16.23
2024-03-11T12:25:24.388Z,16.67
2024-03-11T12:28:03.374Z,15.98
2024-03-11T12:30:40.233Z,15.88
2024-03-11T12:33:10.424Z,15.70
2024-03-11T12:35:45.408Z,14.98
2024-03-11T12:38:15.227Z,16.30
2024-03-11T12:40:45.306Z,15.73
2024-03-11T12:43:31.758Z,15.10
2024-03-11T12:46:07.131Z,15.48
2024-03-11T12:48:35.508Z,16.10
2024-03-11T12:51:03.778Z,16.52
2024-03-11T12:53:32.862Z,15.73
2024-03-11T12:56:14.095Z,15.52
2024-03-11T12:58:44.060Z,15.88
2024-03-11T13:01:14.761Z,15.57
2024-03-11T13:03:43.660Z,16.42
2024-03-11T13:06:17.479Z,16.05
2024-03-11T13:08:45.279Z,15.93
2024-03-11T13:11:16.933Z,15.55
2024-03-11T13:13:44.463Z,15.15
2024-03-11T13:16:15.448Z,14.80
2024-03-11T13:18:47.789Z,14.70
2024-03-11T13:21:20.580Z,14.88
2024-03-11T13:23:49.305Z,15.43
2024-03-11T13:26:19.566Z,15.73
2024-03-11T13:28:48.935Z,15.65
2024-03-11T13:31:17.433Z,16.42
2024-03-11T13:33:45.971Z,16.40
2024-03-11T13:36:14.637Z,16.92
2024-03-11T13:38:42.985Z,16.60
2024-03-11T13:41:12.859Z,17.42
2024-03-11T13:43:41.508Z,16.58
2024-03-11T13:46:15.362Z,16.92
2024-03-11T13:48:44.408Z,16.23
2024-03-11T13:51:15.027Z,16.30
2024-03-11T13:53:43.852Z,16.83
2024-03-11T13:56:12.054Z,16.48
2024-03-11T13:58:40.504Z,17.38
2024-03-11T14:01:10.184Z,16.95
2024-03-11T14:03:37.972Z,18.27
2024-03-11T14:06:09.539Z,16.17
2024-03-11T14:08:36.859Z,16.75
2024-03-11T14:11:06.598Z,16.58
2024-03-11T14:13:34.525Z,17.85
2024-03-11T14:16:01.955Z,17.50
2024-03-11T14:18:29.352Z,18.50
2024-03-11T14:20:56.594Z,17.88
2024-03-11T14:23:25.710Z,17.55
2024-03-11T14:25:55.796Z,17.65
2024-03-11T14:28:23.419Z,17.63
2024-03-11T14:30:51.726Z,16.92
2024-03-11T14:33:19.485Z,17.67
2024-03-11T14:35:48.079Z,16.75
2024-03-11T14:38:15.517Z,17.70
2024-03-11T14:40:46.866Z,18.35
2024-03-11T14:43:15.054Z,16.15
2024-03-11T14:45:43.114Z,17.05
2024-03-11T14:48:15.642Z,17.33
2024-03-11T14:50:48.948Z,16.45
2024-03-11T14:55:47.031Z,16.90
2024-03-11T14:58:20.461Z,17.33
2024-03-11T15:00:59.370Z,17.88
2024-03-11T15:03:28.245Z,16.88
2024-03-11T15:05:55.724Z,16.67
2024-03-11T15:08:23.483Z,17.45
2024-03-11T15:10:51.973Z,18.40
2024-03-11T15:13:24.323Z,17.92
2024-03-11T15:15:54.544Z,16.92
2024-03-11T15:18:25.305Z,16.92
2024-03-11T15:20:53.603Z,16.70
2024-03-11T15:23:26.459Z,16.20
2024-03-11T15:25:55.655Z,16.45
2024-03-11T15:28:23.265Z,16.40
2024-03-11T15:30:55.427Z,17.55
2024-03-11T15:33:23.312Z,16.95
2024-03-11T15:35:52.184Z,17.27
2024-03-11T15:38:21.714Z,16.95
2024-03-11T15:40:50.643Z,16.33
2024-03-11T15:43:18.488Z,16.80
2024-03-11T15:45:48.073Z,17.00
2024-03-11T15:48:16.199Z,16.15
2024-03-11T15:50:43.663Z,17.15
2024-03-11T15:53:11.629Z,17.63
2024-03-11T15:55:39.341Z,16.88
2024-03-11T15:58:06.940Z,16.98
2024-03-11T16:00:36.838Z,16.50
2024-03-11T16:03:09.604Z,17.67
2024-03-11T16:05:39.416Z,16.40
2024-03-11T16:08:17.213Z,16.75
2024-03-11T16:10:46.373Z,18.25
2024-03-11T16:13:14.811Z,17.98
2024-03-11T16:15:42.293Z,16.98
2024-03-11T16:18:14.482Z,17.75
2024-03-11T16:20:42.519Z,16.45
2024-03-11T16:23:10.521Z,16.55
2024-03-11T16:25:37.920Z,17.45
2024-03-11T16:28:08.958Z,16.90
2024-03-11T16:30:36.385Z,17.85
2024-03-11T16:33:04.411Z,17.23
2024-03-11T16:35:38.375Z,16.63
2024-03-11T16:38:10.705Z,16.92
2024-03-11T16:40:40.647Z,15.63
2024-03-11T16:43:12.058Z,16.45
2024-03-11T16:45:44.081Z,16.75
2024-03-11T16:48:13.630Z,16.07
2024-03-11T16:50:47.069Z,16.60
2024-03-11T16:53:15.627Z,15.93
2024-03-11T16:55:43.578Z,16.02
2024-03-11T16:58:13.557Z,16.98
2024-03-11T17:00:43.349Z,15.98
2024-03-11T17:03:10.987Z,16.52
2024-03-11T17:05:41.053Z,16.02
2024-03-11T17:08:15.695Z,16.30
2024-03-11T17:10:46.429Z,16.40
2024-03-11T17:13:16.368Z,16.75
2024-03-11T17:15:44.242Z,16.30
2024-03-11T17:18:13.772Z,16.65
2024-03-11T17:20:46.439Z,16.63
2024-03-11T17:23:18.200Z,15.85
2024-03-11T17:25:46.862Z,15.63
2024-03-11T17:28:17.613Z,17.88
2024-03-11T17:30:49.974Z,17.85
2024-03-11T17:33:19.274Z,17.35
2024-03-11T17:35:50.777Z,17.20
2024-03-11T17:38:20.400Z,17.65
2024-03-11T17:40:49.464Z,18.08
2024-03-11T17:43:20.195Z,17.08
2024-03-11T17:45:51.536Z,17.27
2024-03-11T17:48:28.189Z,17.60
2024-03-11T17:50:58.000Z,16.88
2024-03-11T17:53:28.695Z,17.10
2024-03-11T17:55:58.110Z,16.42
2024-03-11T17:58:25.972Z,17.15
2024-03-11T18:00:54.303Z,18.15
2024-03-11T18:03:22.130Z,18.02
2024-03-11T18:05:49.834Z,17.30
2024-03-11T18:08:17.216Z,17.55
2024-03-11T18:10:45.570Z,16.23
2024-03-11T18:13:15.458Z,17.30
2024-03-11T18:15:44.080Z,18.42
2024-03-11T18:18:14.633Z,17.80
2024-03-11T18:20:42.741Z,16.48
2024-03-11T18:23:14.911Z,17.55
2024-03-11T18:25:52.035Z,16.42
2024-03-11T18:28:25.353Z,16.45
2024-03-11T18:30:52.847Z,17.70
2024-03-11T18:33:20.981Z,17.02
2024-03-11T18:35:48.911Z,17.30
2024-03-11T18:38:16.977Z,18.20
2024-03-11T18:40:44.941Z,18.75
2024-03-11T18:43:16.697Z,18.33
2024-03-11T18:45:47.782Z,17.73
2024-03-11T18:48:15.920Z,17.73
2024-03-11T18:50:45.122Z,17.33
2024-03-11T18:53:13.171Z,16.65
2024-03-11T18:55:40.949Z,16.52
2024-03-11T18:58:10.140Z,17.90
2024-03-11T19:00:38.839Z,16.38
2024-03-11T19:03:08.269Z,16.48
2024-03-11T19:05:35.913Z,16.30
2024-03-11T19:08:06.345Z,16.63
2024-03-11T19:10:34.546Z,16.95
2024-03-11T19:13:03.388Z,15.68
2024-03-11T19:15:30.831Z,16.48
2024-03-11T19:17:58.085Z,16.98
2024-03-11T19:20:31.036Z,17.40
2024-03-11T19:22:59.074Z,18.00
2024-03-11T19:25:30.646Z,18.48
2024-03-11T19:28:00.272Z,18.17
2024-03-11T19:30:33.564Z,18.90
2024-03-11T19:33:03.402Z,17.75
2024-03-11T19:35:32.093Z,16.92
2024-03-11T19:38:17.765Z,17.13
2024-03-11T19:41:04.500Z,17.05
2024-03-11T19:44:14.085Z,18.85
2024-03-11T19:47:06.457Z,18.48
2024-03-11T19:50:11.763Z,18.27
2024-03-11T19:53:17.267Z,18.38
2024-03-11T19:56:21.812Z,18.15
2024-03-11T19:59:30.365Z,17.40
2024-03-11T20:02:15.943Z,17.50
2024-03-11T20:05:00.394Z,16.73
2024-03-11T20:10:39.579Z,16.35
2024-03-11T20:13:19.557Z,15.77
2024-03-11T20:16:20.678Z,16.77
2024-03-11T20:19:33.754Z,18.90
2024-03-11T20:22:44.142Z,17.70
2024-03-11T20:25:40.057Z,16.83
2024-03-11T20:28:16.400Z,17.08
2024-03-11T20:31:11.176Z,16.77
2024-03-11T20:33:41.484Z,16.52
2024-03-11T20:36:12.915Z,17.90
2024-03-11T20:38:41.400Z,16.23
2024-03-11T20:41:12.277Z,17.13
2024-03-11T20:43:42.988Z,17.27
2024-03-11T20:46:10.944Z,17.08
2024-03-11T20:48:47.019Z,18.50
2024-03-11T20:51:15.581Z,17.00
2024-03-11T20:53:42.980Z,16.77
2024-03-11T20:56:11.412Z,16.85
2024-03-11T20:58:38.707Z,15.88
2024-03-11T21:01:07.681Z,16.38
2024-03-11T21:03:34.939Z,15.40
2024-03-11T21:06:02.223Z,15.88
2024-03-11T21:08:29.862Z,16.67
2024-03-11T21:10:57.139Z,16.02
2024-03-11T21:13:24.375Z,16.55
2024-03-11T21:15:51.680Z,17.27
2024-03-11T21:18:23.668Z,16.63
2024-03-11T21:21:07.308Z,16.00
2024-03-11T21:23:41.180Z,17.13
2024-03-11T21:26:38.776Z,16.30
2024-03-11T21:29:09.471Z,16.40
2024-03-11T21:31:38.149Z,15.95
2024-03-11T21:34:06.864Z,16.35
2024-03-11T21:36:35.110Z,15.90
2024-03-11T21:39:02.417Z,17.42
2024-03-11T21:41:29.536Z,16.58
2024-03-11T21:43:56.649Z,16.65
2024-03-11T21:46:25.578Z,17.33
2024-03-11T21:48:53.102Z,17.05
2024-03-11T21:51:25.684Z,17.52
2024-03-11T21:53:54.052Z,16.95
2024-03-11T21:56:21.361Z,17.42
2024-03-11T21:58:48.725Z,15.85
2024-03-11T22:01:15.975Z,17.13
2024-03-11T22:03:43.182Z,16.20
2024-03-11T22:06:10.504Z,16.55
2024-03-11T22:08:39.133Z,16.65
2024-03-11T22:11:07.164Z,16.75
2024-03-11T22:13:34.443Z,17.42
2024-03-11T22:16:02.642Z,16.67
2024-03-11T22:18:29.913Z,17.55
2024-03-11T22:20:58.618Z,17.30
2024-03-11T22:23:27.170Z,17.02
2024-03-11T22:25:57.258Z,17.73
2024-03-11T22:28:24.346Z,17.77
2024-03-11T22:30:53.920Z,17.73
2024-03-11T22:33:21.377Z,17.98
2024-03-11T22:35:50.182Z,19.02
2024-03-11T22:38:18.318Z,18.75
2024-03-11T22:40:45.422Z,18.38
2024-03-11T22:43:12.647Z,16.88
2024-03-11T22:45:40.877Z,16.52
2024-03-11T22:48:10.400Z,16.90
2024-03-11T22:50:37.608Z,16.52
2024-03-11T22:53:04.928Z,16.70
2024-03-11T22:55:32.071Z,16.88
2024-03-11T22:57:59.201Z,17.23
2024-03-11T23:00:32.160Z,18.77
2024-03-11T23:02:59.369Z,17.10
2024-03-11T23:05:26.563Z,17.52
2024-03-11T23:07:54.664Z,17.25
2024-03-11T23:10:27.954Z,17.50
2024-03-11T23:12:55.972Z,16.95
2024-03-11T23:15:24.751Z,17.10
2024-03-11T23:17:52.385Z,16.38
2024-03-11T23:20:22.673Z,17.55
2024-03-11T23:22:50.676Z,16.60
2024-03-11T23:25:23.455Z,16.80
2024-03-11T23:27:52.748Z,17.05
2024-03-11T23:30:19.909Z,16.23
2024-03-11T23:32:49.138Z,17.02
2024-03-11T23:35:16.619Z,16.63
2024-03-11T23:37:43.746Z,17.10
2024-03-11T23:40:22.298Z,18.30
2024-03-11T23:42:53.351Z,17.27
2024-03-11T23:45:21.236Z,17.08
2024-03-11T23:47:52.447Z,16.70
2024-03-11T23:50:22.304Z,16.98
2024-03-11T23:52:54.082Z,16.38
2024-03-11T23:55:21.639Z,16.85
2024-03-11T23:57:49.206Z,16.42
